Time;durP1;ratioP1;P1;durP2;ratioP2;P2;SDS_P1;SDS_P2;PMS_P1;PMS_P2;Temp;Humidity;BMP_temperature;BMP_pressure;BME280_temperature;BME280_humidity;BME280_pressure;Samples;Min_cycle;Max_cycle;Signal;HPM_P1;HPM_P2
2023/08/11 00:02:22;;;;;;;;;;;19.20;55.60;;;15.37;100.00;95952.13;4978866;28;20025;-47
2023/08/11 00:04:51;;;;;;;;;;;19.20;55.70;;;15.33;100.00;95955.66;4992321;28;20403;-46
2023/08/11 00:07:17;;;;;;;;;;;19.20;55.70;;;15.27;100.00;95952.25;4991559;28;20012;-48
2023/08/11 00:09:44;;;;;;;;;;;19.20;55.70;;;15.30;100.00;95954.34;4992755;28;20060;-46
2023/08/11 00:12:10;;;;;;;;;;;19.20;55.80;;;15.34;100.00;95960.75;4990989;28;19913;-46
2023/08/11 00:14:36;;;;;;;;;;;19.20;55.80;;;15.34;100.00;95957.25;4991772;28;19921;-48
2023/08/11 00:17:03;;;;;;;;;;;19.20;55.90;;;15.35;100.00;95956.97;4992131;28;19921;-51
2023/08/11 00:19:29;;;;;;;;;;;19.20;56.00;;;15.36;100.00;95971.22;4989767;28;20011;-46
2023/08/11 00:21:56;;;;;;;;;;;19.20;56.00;;;15.36;100.00;95965.84;4979159;28;19967;-50
2023/08/11 00:24:23;;;;;;;;;;;19.20;56.10;;;15.36;100.00;95968.53;4990785;28;19932;-46
2023/08/11 00:26:49;;;;;;;;;;;19.20;56.10;;;15.36;100.00;95969.31;4979036;28;19909;-46
2023/08/11 00:29:15;;;;;;;;;;;19.20;56.20;;;15.36;100.00;95969.31;4992595;28;19934;-50
2023/08/11 00:31:41;;;;;;;;;;;19.20;56.20;;;15.32;100.00;95970.16;4986215;28;19917;-46
2023/08/11 00:34:07;;;;;;;;;;;19.20;56.20;;;15.29;100.00;95976.88;4983466;28;19909;-47
2023/08/11 00:36:34;;;;;;;;;;;19.20;56.20;;;15.30;100.00;95969.66;4986198;28;19909;-52
2023/08/11 00:39:00;;;;;;;;;;;19.20;56.30;;;15.33;100.00;95971.78;4983714;28;19909;-46
2023/08/11 00:41:30;;;;;;;;;;;19.20;56.30;;;15.30;100.00;95969.66;4991526;28;19917;-47
2023/08/11 00:43:56;;;;;;;;;;;19.20;56.30;;;15.26;100.00;95967.53;4990086;28;19917;-47
2023/08/11 00:46:24;;;;;;;;;;;19.20;56.40;;;15.24;100.00;95971.59;4979070;28;19913;-47
2023/08/11 00:48:53;;;;;;;;;;;19.10;56.40;;;15.16;100.00;95974.88;4990635;28;19910;-46
2023/08/11 00:51:23;;;;;;;;;;;19.10;56.40;;;15.18;100.00;95976.19;4978872;28;19944;-46
2023/08/11 00:53:51;;;;;;;;;;;19.10;56.50;;;15.19;100.00;95972.44;4993266;28;19913;-47
2023/08/11 00:56:24;;;;;;;;;;;19.10;56.60;;;15.20;100.00;95978.63;4971370;28;19983;-48
2023/08/11 00:58:53;;;;;;;;;;;19.10;56.60;;;15.18;100.00;95980.78;4991241;28;19913;-48
2023/08/11 01:01:19;;;;;;;;;;;19.10;56.60;;;15.16;100.00;95980.25;4986302;28;20304;-48
2023/08/11 01:03:47;;;;;;;;;;;19.10;56.70;;;15.13;100.00;95978.94;4990746;28;20365;-46
2023/08/11 01:06:35;;;;;;;;;;;19.10;56.70;;;15.08;100.00;95979.00;4989712;28;19937;-51
2023/08/11 01:09:22;;;;;;;;;;;19.00;56.70;;;15.03;100.00;95990.56;4994339;28;19920;-49
2023/08/11 01:12:16;;;;;;;;;;;19.00;56.60;;;14.97;100.00;95985.53;4994753;28;20360;-47
2023/08/11 01:15:26;;;;;;;;;;;19.00;56.70;;;14.94;100.00;95983.41;4994829;28;19948;-53
2023/08/11 01:17:54;;;;;;;;;;;18.90;56.70;;;14.93;100.00;95987.97;4994569;28;19909;-48
2023/08/11 01:20:21;;;;;;;;;;;18.90;56.80;;;14.91;100.00;95986.66;4992615;28;19910;-45
2023/08/11 01:22:54;;;;;;;;;;;18.80;56.80;;;14.88;100.00;95988.00;4975639;28;19917;-48
2023/08/11 01:25:22;;;;;;;;;;;18.90;56.90;;;14.85;100.00;95991.25;4995787;28;19913;-46
2023/08/11 01:27:59;;;;;;;;;;;18.80;56.90;;;14.81;100.00;95992.91;4988088;28;19909;-46
2023/08/11 01:30:27;;;;;;;;;;;18.80;57.00;;;14.78;100.00;95993.47;4986008;28;20390;-49
2023/08/11 01:32:53;;;;;;;;;;;18.80;57.00;;;14.74;100.00;95995.91;5000619;28;19980;-51
2023/08/11 01:35:20;;;;;;;;;;;18.70;57.00;;;14.68;100.00;95997.03;4995325;28;19949;-46
2023/08/11 01:37:47;;;;;;;;;;;18.70;57.10;;;14.61;100.00;96001.13;4993823;28;19916;-47
2023/08/11 01:40:14;;;;;;;;;;;18.70;57.10;;;14.55;100.00;96003.84;4995120;28;19913;-50
2023/08/11 01:42:43;;;;;;;;;;;18.70;57.20;;;14.57;100.00;96001.69;5018110;23;19952;-47
2023/08/11 01:45:11;;;;;;;;;;;18.60;57.20;;;14.56;100.00;96001.94;5014498;28;19913;-47
2023/08/11 01:47:41;;;;;;;;;;;18.60;57.20;;;14.53;100.00;96000.63;5003102;28;20354;-45
2023/08/11 01:50:09;;;;;;;;;;;18.60;57.30;;;14.52;100.00;96007.06;5015436;28;19909;-44
2023/08/11 01:52:41;;;;;;;;;;;18.60;57.30;;;14.50;100.00;96003.03;5017952;28;19913;-46
2023/08/11 01:55:11;;;;;;;;;;;18.50;57.30;;;14.46;100.00;96004.69;5010819;28;20428;-47
2023/08/11 01:57:38;;;;;;;;;;;18.50;57.40;;;14.43;100.00;96003.34;5014733;28;19959;-46
2023/08/11 02:00:10;;;;;;;;;;;18.40;57.50;;;14.41;100.00;96000.13;5009326;28;20020;-45
2023/08/11 02:02:39;;;;;;;;;;;18.40;57.60;;;14.39;100.00;95994.28;5013675;28;19916;-44
2023/08/11 02:05:15;;;;;;;;;;;18.40;57.60;;;14.34;100.00;95996.97;5000946;28;19924;-48
2023/08/11 02:07:42;;;;;;;;;;;18.40;57.70;;;14.31;100.00;96002.88;5013547;28;19909;-48
2023/08/11 02:10:09;;;;;;;;;;;18.30;57.70;;;14.26;100.00;95995.69;5013333;28;19916;-49
2023/08/11 02:12:40;;;;;;;;;;;18.30;57.70;;;14.23;100.00;96001.59;5011032;28;20378;-47
2023/08/11 02:15:07;;;;;;;;;;;18.30;57.80;;;14.22;100.00;96002.66;5012195;28;19913;-50
2023/08/11 02:17:34;;;;;;;;;;;18.30;57.90;;;14.25;100.00;96002.13;5007513;28;19909;-49
2023/08/11 02:20:12;;;;;;;;;;;18.20;57.90;;;14.23;100.00;96000.81;5010911;28;19963;-45
2023/08/11 02:22:37;;;;;;;;;;;18.30;58.00;;;14.22;100.00;96012.59;5008709;28;19966;-45
2023/08/11 02:25:04;;;;;;;;;;;18.20;58.00;;;14.17;100.00;96008.06;5013701;28;19909;-45
2023/08/11 02:27:29;;;;;;;;;;;18.20;58.00;;;14.12;100.00;96006.22;5010041;28;19913;-47
2023/08/11 02:29:55;;;;;;;;;;;18.20;58.00;;;14.07;100.00;96005.44;5006514;28;20282;-44
2023/08/11 02:32:21;;;;;;;;;;;18.10;58.00;;;14.05;100.00;96004.94;5014301;28;19913;-45
2023/08/11 02:34:47;;;;;;;;;;;18.10;58.10;;;14.03;100.00;96005.19;5014640;28;20306;-48
2023/08/11 02:37:13;;;;;;;;;;;18.10;58.20;;;14.04;100.00;96001.44;5011395;28;19910;-44
2023/08/11 02:39:38;;;;;;;;;;;18.10;58.20;;;14.03;100.00;96012.44;5014651;28;19962;-44
2023/08/11 02:42:04;;;;;;;;;;;18.10;58.30;;;14.06;100.00;96009.19;5013172;28;20356;-45
2023/08/11 02:44:30;;;;;;;;;;;18.00;58.30;;;14.04;100.00;96009.47;5003485;28;19920;-45
2023/08/11 02:46:56;;;;;;;;;;;18.00;58.30;;;14.00;100.00;96016.44;4998780;28;19927;-47
2023/08/11 02:49:22;;;;;;;;;;;18.00;58.40;;;13.91;100.00;96009.25;5013571;28;20023;-44
2023/08/11 02:51:47;;;;;;;;;;;18.00;58.40;;;13.89;100.00;96013.03;5014243;28;19909;-45
2023/08/11 02:54:13;;;;;;;;;;;17.90;58.40;;;13.86;100.00;96008.22;5013135;28;20339;-44
2023/08/11 02:56:46;;;;;;;;;;;17.90;58.50;;;13.82;100.00;96006.34;5014322;28;19913;-46
2023/08/11 02:59:12;;;;;;;;;;;17.90;58.60;;;13.80;100.00;96014.69;5014655;28;19913;-46
2023/08/11 03:01:39;;;;;;;;;;;17.90;58.60;;;13.78;100.00;96016.81;5012903;28;20384;-47
2023/08/11 03:04:06;;;;;;;;;;;17.80;58.60;;;13.70;100.00;96014.72;5013876;28;19915;-44
2023/08/11 03:06:32;;;;;;;;;;;17.80;58.70;;;13.69;100.00;96010.41;5008386;28;20262;-46
2023/08/11 03:08:58;;;;;;;;;;;17.70;58.70;;;13.66;100.00;96005.63;4994604;28;19910;-45
2023/08/11 03:11:23;;;;;;;;;;;17.70;58.80;;;13.64;100.00;96008.56;5012155;28;19909;-45
2023/08/11 03:13:49;;;;;;;;;;;17.70;58.80;;;13.64;100.00;96010.47;5008094;28;19909;-44
2023/08/11 03:16:15;;;;;;;;;;;17.70;58.90;;;13.62;100.00;96013.38;4999753;28;19909;-44
2023/08/11 03:18:41;;;;;;;;;;;17.60;58.90;;;13.58;100.00;96012.34;5009010;28;19913;-45
2023/08/11 03:21:07;;;;;;;;;;;17.60;59.00;;;13.55;100.00;96012.88;5009485;28;19910;-45
2023/08/11 03:23:34;;;;;;;;;;;17.60;59.10;;;13.55;100.00;96010.22;5013780;28;19913;-44
2023/08/11 03:26:00;;;;;;;;;;;17.60;59.20;;;13.52;100.00;96018.78;5011819;28;19916;-46
2023/08/11 03:28:25;;;;;;;;;;;17.60;59.20;;;13.50;100.00;96018.25;5001314;28;19909;-48
2023/08/11 03:30:51;;;;;;;;;;;17.50;59.20;;;13.49;100.00;96013.97;5005890;28;19923;-47
2023/08/11 03:33:17;;;;;;;;;;;17.50;59.30;;;13.47;100.00;96016.13;5001363;28;19909;-44
2023/08/11 03:35:43;;;;;;;;;;;17.50;59.30;;;13.47;100.00;96016.13;4999476;28;19917;-45
2023/08/11 03:38:09;;;;;;;;;;;17.50;59.40;;;13.47;100.00;96016.13;5011802;28;19909;-49
2023/08/11 03:40:35;;;;;;;;;;;17.50;59.50;;;13.45;100.00;96012.94;4999526;28;19932;-45
2023/08/11 03:43:01;;;;;;;;;;;17.50;59.50;;;13.46;100.00;96014.53;4995118;28;20022;-50
2023/08/11 03:45:27;;;;;;;;;;;17.50;59.60;;;13.45;100.00;96017.47;5006796;28;20410;-44
2023/08/11 03:47:53;;;;;;;;;;;17.50;59.60;;;13.45;100.00;96022.84;5000336;28;20014;-45
2023/08/11 03:50:18;;;;;;;;;;;17.40;59.70;;;13.42;100.00;96018.81;4999187;28;20047;-46
2023/08/11 03:52:46;;;;;;;;;;;17.40;59.70;;;13.42;100.00;96019.63;4993607;28;20004;-45
2023/08/11 03:55:12;;;;;;;;;;;17.40;59.70;;;13.43;100.00;96021.22;5006463;28;19913;-44
2023/08/11 03:57:38;;;;;;;;;;;17.40;59.80;;;13.42;100.00;96014.25;4993454;28;19945;-47
2023/08/11 04:00:14;;;;;;;;;;;17.40;59.80;;;13.43;100.00;96023.09;4995430;28;20287;-46
2023/08/11 04:02:45;;;;;;;;;;;17.40;60.00;;;13.47;100.00;96018.00;5002234;28;27836;-46
2023/08/11 04:05:11;;;;;;;;;;;17.40;60.00;;;13.50;100.00;96020.13;5006535;28;20012;-45
2023/08/11 04:07:38;;;;;;;;;;;17.50;60.10;;;13.50;100.00;96028.94;5006988;28;19936;-47
2023/08/11 04:10:06;;;;;;;;;;;17.50;61.00;;;13.50;100.00;96031.63;4999392;28;19979;-45
2023/08/11 04:12:32;;;;;;;;;;;17.50;60.20;;;13.51;100.00;96027.91;5007463;28;19956;-44
2023/08/11 04:14:59;;;;;;;;;;;17.50;60.30;;;13.48;100.00;96031.13;5011763;28;19916;-44
2023/08/11 04:17:26;;;;;;;;;;;17.50;60.20;;;13.50;100.00;96031.63;5002322;28;19909;-45
2023/08/11 04:19:53;;;;;;;;;;;17.50;60.20;;;13.48;100.00;96036.47;5008403;28;19910;-44
2023/08/11 04:22:20;;;;;;;;;;;17.50;60.20;;;13.52;100.00;96037.53;5025571;28;20359;-45
2023/08/11 04:24:46;;;;;;;;;;;17.60;60.30;;;13.51;100.00;96040.47;5004246;28;20334;-45
2023/08/11 04:27:12;;;;;;;;;;;17.60;60.20;;;13.48;100.00;96036.47;5003798;28;19909;-43
2023/08/11 04:29:38;;;;;;;;;;;17.60;60.30;;;13.42;100.00;96040.22;5006068;28;19916;-48
2023/08/11 04:32:04;;;;;;;;;;;17.60;60.20;;;13.43;100.00;96050.66;5025979;28;19909;-45
2023/08/11 04:34:33;;;;;;;;;;;17.60;60.20;;;13.40;100.00;96045.84;4999195;28;19944;-47
2023/08/11 04:37:00;;;;;;;;;;;17.50;60.10;;;13.42;100.00;96041.03;5011321;28;19909;-44
2023/08/11 04:39:26;;;;;;;;;;;17.60;60.30;;;13.46;100.00;96035.94;5009926;28;19917;-44
2023/08/11 04:41:51;;;;;;;;;;;17.60;60.30;;;13.46;100.00;96041.28;5000909;28;20340;-46
2023/08/11 04:44:17;;;;;;;;;;;17.60;60.30;;;13.46;100.00;96038.59;5003687;28;19913;-44
2023/08/11 04:46:43;;;;;;;;;;;17.60;60.30;;;13.45;100.00;96042.38;5002270;28;19955;-45
2023/08/11 04:49:09;;;;;;;;;;;17.60;60.30;;;13.46;100.00;96043.97;5002602;28;19909;-45
2023/08/11 04:51:35;;;;;;;;;;;17.60;60.40;;;13.54;100.00;96048.75;5000989;28;19920;-45
2023/08/11 04:54:02;;;;;;;;;;;17.60;60.40;;;13.57;100.00;96050.06;4997520;28;19924;-45
2023/08/11 04:56:29;;;;;;;;;;;17.70;60.40;;;13.57;100.00;96042.03;5012490;28;19913;-46
2023/08/11 04:58:55;;;;;;;;;;;17.70;60.40;;;13.59;100.00;96038.03;4999234;28;20003;-46
2023/08/11 05:01:24;;;;;;;;;;;17.80;60.50;;;13.72;100.00;96039.31;5001693;28;19918;-44
2023/08/11 05:03:50;;;;;;;;;;;17.90;60.60;;;13.89;100.00;96047.03;5005528;28;19910;-45
2023/08/11 05:06:17;;;;;;;;;;;17.90;60.60;;;14.05;100.00;96047.78;5001425;28;19909;-46
2023/08/11 05:08:45;;;;;;;;;;;18.00;60.70;;;14.23;100.00;96049.84;5008715;28;19916;-44
2023/08/11 05:11:10;;;;;;;;;;;18.20;60.80;;;14.41;100.00;96052.94;5002795;28;19938;-43
2023/08/11 05:13:36;;;;;;;;;;;18.30;60.80;;;14.54;100.00;96047.00;5008984;28;20368;-44
2023/08/11 05:16:03;;;;;;;;;;;18.50;60.70;;;14.72;100.00;96046.34;5002381;28;19909;-44
2023/08/11 05:18:29;;;;;;;;;;;18.60;60.70;;;14.93;100.00;96046.19;5004834;28;20332;-46
2023/08/11 05:20:55;;;;;;;;;;;18.80;60.70;;;15.12;100.00;96048.97;5002691;28;19955;-47
2023/08/11 05:23:21;;;;;;;;;;;19.00;60.50;;;15.33;100.00;96055.78;5010668;28;20020;-44
2023/08/11 05:25:47;;;;;;;;;;;19.20;60.40;;;15.55;100.00;96049.91;5000379;28;20028;-44
2023/08/11 05:28:13;;;;;;;;;;;19.50;60.30;;;15.78;100.00;96055.59;5006215;28;20398;-45
2023/08/11 05:30:40;;;;;;;;;;;19.70;60.10;;;16.04;100.00;96067.66;5007612;28;19909;-44
2023/08/11 05:33:05;;;;;;;;;;;20.00;60.00;;;16.27;100.00;96076.78;5010559;28;19936;-44
2023/08/11 05:35:31;;;;;;;;;;;20.30;59.90;;;16.57;100.00;96077.44;5001427;28;19914;-45
2023/08/11 05:37:59;;;;;;;;;;;20.60;59.80;;;16.87;100.00;96081.63;5004535;28;19956;-44
2023/08/11 05:40:24;;;;;;;;;;;20.90;59.60;;;17.15;100.00;96079.84;4996019;28;19909;-47
2023/08/11 05:42:50;;;;;;;;;;;21.30;59.50;;;17.39;100.00;96082.38;5008242;28;20130;-48
2023/08/11 05:45:16;;;;;;;;;;;21.60;59.20;;;17.52;100.00;96091.63;5003366;28;20011;-46
2023/08/11 05:47:42;;;;;;;;;;;21.90;58.90;;;17.71;100.00;96084.28;5013370;28;19953;-47
2023/08/11 05:50:08;;;;;;;;;;;22.20;58.60;;;17.93;100.00;96083.63;5003835;28;20012;-47
2023/08/11 05:52:34;;;;;;;;;;;22.60;58.40;;;18.17;100.00;96088.78;4999871;28;19909;-44
2023/08/11 05:55:00;;;;;;;;;;;22.90;58.10;;;18.43;98.62;96088.28;5014340;28;19909;-45
2023/08/11 05:57:26;;;;;;;;;;;23.20;57.80;;;18.62;94.51;96086.25;5002360;28;20011;-45
2023/08/11 05:59:51;;;;;;;;;;;23.50;57.60;;;18.89;93.94;96089.97;5011644;28;19913;-52
2023/08/11 06:02:17;;;;;;;;;;;23.80;57.20;;;19.17;92.08;96083.38;5001929;28;19959;-47
2023/08/11 06:04:44;;;;;;;;;;;24.10;57.00;;;19.47;90.34;96088.34;5015421;28;19963;-49
2023/08/11 06:07:10;;;;;;;;;;;24.40;56.70;;;19.73;88.98;96092.00;5008995;28;19941;-46
2023/08/11 06:09:36;;;;;;;;;;;24.70;56.50;;;20.01;87.90;96097.22;5006303;28;20366;-44
2023/08/11 06:12:02;;;;;;;;;;;24.90;56.20;;;20.29;83.53;96095.09;5015308;28;19955;-46
2023/08/11 06:14:28;;;;;;;;;;;25.20;56.00;;;20.59;82.85;96092.63;5022121;28;19913;-48
2023/08/11 06:16:54;;;;;;;;;;;25.60;55.80;;;20.84;80.16;96093.75;5014739;28;20017;-45
2023/08/11 06:19:19;;;;;;;;;;;25.90;55.50;;;21.04;78.84;96087.72;5014014;28;19909;-45
2023/08/11 06:21:45;;;;;;;;;;;26.20;55.20;;;21.23;77.68;96087.41;5014806;28;19920;-47
2023/08/11 06:24:12;;;;;;;;;;;26.60;54.90;;;21.47;76.73;96087.72;5014061;28;20416;-51
2023/08/11 06:26:37;;;;;;;;;;;26.90;54.50;;;21.63;74.49;96081.78;5001699;28;19909;-45
2023/08/11 06:29:06;;;;;;;;;;;27.20;54.10;;;21.84;72.71;96096.25;5014786;28;19909;-46
2023/08/11 06:31:32;;;;;;;;;;;27.40;53.70;;;22.04;72.66;96092.00;5006191;28;19949;-49
2023/08/11 06:33:58;;;;;;;;;;;27.60;53.30;;;22.26;71.98;96092.91;5005945;28;19945;-47
2023/08/11 06:36:23;;;;;;;;;;;27.90;53.10;;;22.46;69.44;96099.50;5013491;28;19963;-46
2023/08/11 06:38:49;;;;;;;;;;;28.20;52.80;;;22.65;69.83;96097.13;5004174;28;19909;-49
2023/08/11 06:41:15;;;;;;;;;;;28.40;52.40;;;22.92;67.72;96095.84;5012167;28;20342;-45
2023/08/11 06:43:41;;;;;;;;;;;28.60;52.10;;;23.11;66.23;96089.97;5007824;28;19913;-45
2023/08/11 06:46:07;;;;;;;;;;;28.80;51.70;;;23.30;66.07;96087.53;5014432;28;19909;-44
2023/08/11 06:48:33;;;;;;;;;;;29.00;51.40;;;23.44;65.25;96095.44;5019158;28;19908;-43
2023/08/11 06:50:59;;;;;;;;;;;29.20;51.10;;;23.53;64.10;96095.31;5015543;28;19915;-45
2023/08/11 06:53:24;;;;;;;;;;;29.40;50.60;;;23.83;64.34;96087.06;5014536;28;19917;-46
2023/08/11 06:55:51;;;;;;;;;;;29.60;50.50;;;23.97;62.70;96084.78;5009080;28;19910;-43
2023/08/11 06:58:17;;;;;;;;;;;29.80;50.30;;;24.21;61.13;96092.19;5006197;28;19916;-43
2023/08/11 07:00:43;;;;;;;;;;;30.00;49.90;;;24.32;59.93;96095.25;5013635;28;19909;-46
2023/08/11 07:03:09;;;;;;;;;;;30.20;49.50;;;24.48;60.13;96090.75;5013955;28;19920;-44
2023/08/11 07:05:35;;;;;;;;;;;30.30;49.20;;;24.64;59.11;96088.13;5014102;28;19917;-44
2023/08/11 07:08:01;;;;;;;;;;;30.50;48.80;;;24.90;59.21;96093.16;5001793;28;20372;-44
2023/08/11 07:10:27;;;;;;;;;;;30.60;48.60;;;25.06;57.72;96087.78;5012451;28;19909;-44
2023/08/11 07:12:53;;;;;;;;;;;30.80;48.50;;;25.23;57.07;96090.28;5012839;28;19909;-44
2023/08/11 07:15:19;;;;;;;;;;;30.90;48.10;;;25.42;56.47;96091.56;5013617;28;19932;-50
2023/08/11 07:17:44;;;;;;;;;;;31.10;47.90;;;25.64;56.09;96087.47;5013602;28;19983;-47
2023/08/11 07:20:11;;;;;;;;;;;31.30;47.50;;;25.75;55.71;96092.03;4999654;28;19913;-47
2023/08/11 07:22:37;;;;;;;;;;;31.40;47.30;;;26.03;54.54;96093.97;5013824;28;20435;-46
2023/08/11 07:25:04;;;;;;;;;;;31.60;47.10;;;26.15;54.11;96091.13;5012568;28;19916;-45
2023/08/11 07:27:29;;;;;;;;;;;31.80;46.70;;;26.43;53.83;96099.22;5013756;28;20444;-43
2023/08/11 07:29:55;;;;;;;;;;;32.00;46.50;;;26.72;53.33;96097.19;5012600;28;19917;-48
2023/08/11 07:32:21;;;;;;;;;;;32.10;46.30;;;26.73;53.15;96098.75;5002351;28;19920;-47
2023/08/11 07:34:47;;;;;;;;;;;32.40;46.20;;;26.90;52.54;96097.56;5011586;28;19909;-46
2023/08/11 07:37:12;;;;;;;;;;;32.60;45.80;;;27.08;52.03;96095.22;5012496;28;19916;-45
2023/08/11 07:39:38;;;;;;;;;;;32.80;45.40;;;27.16;51.83;96102.44;5013366;28;19916;-44
2023/08/11 07:42:04;;;;;;;;;;;33.00;45.10;;;27.36;51.53;96097.75;5016618;23;19921;-55
2023/08/11 07:44:31;;;;;;;;;;;33.20;44.90;;;27.59;50.86;96098.63;4982359;28;20396;-54
2023/08/11 07:46:58;;;;;;;;;;;33.40;44.80;;;27.76;50.04;96099.28;4986365;28;20299;-53
2023/08/11 07:49:25;;;;;;;;;;;33.70;44.60;;;27.73;49.66;96100.81;4992552;28;19979;-48
2023/08/11 07:51:51;;;;;;;;;;;33.80;44.20;;;27.98;49.32;96100.50;4987795;28;19920;-49
2023/08/11 07:54:17;;;;;;;;;;;34.10;43.80;;;27.94;49.04;96102.41;4973349;28;19936;-50
2023/08/11 07:56:43;;;;;;;;;;;34.20;43.50;;;28.17;48.30;96105.13;4974114;28;20364;-52
2023/08/11 07:59:09;;;;;;;;;;;34.40;43.20;;;28.44;47.88;96106.00;4973817;28;20296;-51
2023/08/11 08:01:36;;;;;;;;;;;34.60;43.00;;;28.74;48.06;96106.84;4971700;28;20391;-51
2023/08/11 08:04:06;;;;;;;;;;;34.80;42.80;;;28.80;46.85;96110.03;4958429;28;19916;-52
2023/08/11 08:06:32;;;;;;;;;;;34.90;42.60;;;28.98;46.03;96107.56;4966373;28;19953;-53
2023/08/11 08:08:59;;;;;;;;;;;35.10;42.30;;;29.23;45.63;96116.94;4952866;28;19933;-53
2023/08/11 08:11:26;;;;;;;;;;;35.30;42.10;;;29.37;45.26;96110.84;4967871;28;20009;-51
2023/08/11 08:13:52;;;;;;;;;;;35.50;41.90;;;29.66;45.44;96111.97;4964033;28;19941;-51
2023/08/11 08:16:17;;;;;;;;;;;35.70;41.60;;;29.80;44.60;96113.28;4966487;28;19951;-51
2023/08/11 08:18:43;;;;;;;;;;;36.00;41.50;;;29.87;45.29;96111.44;4959706;28;19945;-51
2023/08/11 08:21:09;;;;;;;;;;;36.20;41.20;;;30.07;45.25;96116.72;4962237;28;19910;-56
2023/08/11 08:23:35;;;;;;;;;;;36.40;40.90;;;30.29;43.57;96109.47;4967454;28;19918;-54
2023/08/11 08:26:00;;;;;;;;;;;36.60;40.60;;;30.54;43.45;96113.19;4958485;28;19910;-49
2023/08/11 08:28:26;;;;;;;;;;;36.80;40.40;;;30.66;42.70;96115.66;4964652;28;19914;-52
2023/08/11 08:30:52;;;;;;;;;;;37.00;40.20;;;30.97;42.22;96108.03;4967151;28;19920;-51
2023/08/11 08:33:18;;;;;;;;;;;37.30;40.00;;;31.18;40.38;96110.06;4955534;28;19941;-52
2023/08/11 08:35:44;;;;;;;;;;;37.50;39.70;;;31.36;40.38;96117.66;4959309;28;20355;-49
2023/08/11 08:38:10;;;;;;;;;;;37.70;39.30;;;31.56;40.44;96116.19;4967802;28;20284;-51
2023/08/11 08:40:36;;;;;;;;;;;37.80;38.90;;;31.65;39.74;96111.06;4971015;28;19960;-53
2023/08/11 08:43:03;;;;;;;;;;;37.90;38.60;;;31.87;39.74;96111.94;4945313;28;20518;-53
2023/08/11 08:45:31;;;;;;;;;;;38.10;38.40;;;31.77;39.36;96110.72;4958480;28;20009;-48
2023/08/11 08:48:00;;;;;;;;;;;38.20;38.20;;;32.05;38.79;96111.19;4964295;28;20348;-54
2023/08/11 08:50:28;;;;;;;;;;;38.40;38.00;;;32.17;38.82;96108.06;4959165;28;19945;-50
2023/08/11 08:52:54;;;;;;;;;;;38.60;37.80;;;32.48;37.79;96112.81;4963698;28;20004;-56
2023/08/11 08:55:20;;;;;;;;;;;38.80;37.60;;;32.46;38.36;96108.88;4967000;28;19945;-56
2023/08/11 08:57:47;;;;;;;;;;;39.00;37.40;;;32.56;37.61;96110.88;4963750;28;20360;-58
2023/08/11 09:00:13;;;;;;;;;;;39.10;37.10;;;32.63;37.38;96108.09;4967981;28;19917;-55
2023/08/11 09:02:42;;;;;;;;;;;39.10;36.70;;;33.02;36.79;96098.19;4963108;28;19968;-55
2023/08/11 09:05:09;;;;;;;;;;;39.30;36.50;;;33.06;37.56;96105.28;4964923;28;19955;-56
2023/08/11 09:07:34;;;;;;;;;;;39.30;36.30;;;33.44;37.03;96094.50;4959527;28;20029;-51
2023/08/11 09:10:00;;;;;;;;;;;39.50;36.20;;;33.80;35.47;96097.09;4971257;28;19914;-51
2023/08/11 09:12:27;;;;;;;;;;;39.60;36.00;;;33.67;35.30;96096.00;4971089;28;19916;-53
2023/08/11 09:14:54;;;;;;;;;;;39.80;35.90;;;33.82;35.18;96094.72;4970815;28;19909;-55
2023/08/11 09:17:20;;;;;;;;;;;39.90;35.60;;;33.60;35.54;96096.81;4976126;28;20000;-51
2023/08/11 09:19:53;;;;;;;;;;;40.00;35.30;;;33.59;35.59;96093.25;4970313;28;20265;-51
2023/08/11 09:22:25;;;;;;;;;;;40.10;35.10;;;33.85;36.40;96088.41;4969116;28;19921;-49
2023/08/11 09:24:52;;;;;;;;;;;40.30;34.90;;;33.96;35.53;96082.78;4967731;28;19914;-51
2023/08/11 09:27:20;;;;;;;;;;;40.40;34.70;;;34.20;35.35;96086.59;4969900;28;19914;-49
2023/08/11 09:29:47;;;;;;;;;;;40.50;34.40;;;34.19;34.63;96088.59;4975997;28;20008;-49
2023/08/11 09:32:13;;;;;;;;;;;40.50;34.20;;;34.05;34.99;96083.16;4961713;28;19910;-50
2023/08/11 09:34:39;;;;;;;;;;;40.50;34.00;;;34.13;34.97;96078.34;4958707;28;19917;-49
2023/08/11 09:37:05;;;;;;;;;;;40.60;33.70;;;34.13;34.78;96079.16;4968401;28;20320;-51
2023/08/11 09:39:31;;;;;;;;;;;40.50;33.60;;;34.16;34.48;96077.53;4959060;28;20360;-49
2023/08/11 09:41:57;;;;;;;;;;;40.60;33.60;;;34.42;35.03;96076.16;4968527;28;19921;-52
2023/08/11 09:44:23;;;;;;;;;;;40.70;33.50;;;34.82;34.64;96076.56;4965274;28;19910;-50
2023/08/11 09:46:49;;;;;;;;;;;40.80;33.50;;;34.96;33.18;96079.19;4969691;28;19943;-50
2023/08/11 09:49:16;;;;;;;;;;;41.00;33.40;;;35.17;34.44;96084.53;4974623;28;19910;-58
2023/08/11 09:51:43;;;;;;;;;;;41.10;33.20;;;34.67;33.66;96076.72;4975686;28;19946;-50
2023/08/11 09:54:10;;;;;;;;;;;41.20;33.00;;;34.76;33.51;96077.03;4974246;28;19910;-52
2023/08/11 09:56:40;;;;;;;;;;;41.40;32.90;;;34.92;33.43;96073.72;4975640;28;20402;-49
2023/08/11 09:59:19;;;;;;;;;;;41.40;32.70;;;34.89;33.67;96074.53;4990481;28;19921;-51
2023/08/11 10:01:47;;;;;;;;;;;41.60;32.60;;;35.05;32.76;96078.75;4974103;28;19914;-52
2023/08/11 10:04:33;;;;;;;;;;;41.60;31.90;;;35.30;32.47;96073.69;4974729;28;19909;-50
2023/08/11 10:07:01;;;;;;;;;;;41.70;31.80;;;34.78;32.65;96071.84;4955659;28;19910;-51
2023/08/11 10:09:31;;;;;;;;;;;41.50;31.00;;;34.85;33.73;96072.97;4962850;28;20381;-51
2023/08/11 10:11:58;;;;;;;;;;;41.40;31.10;;;35.28;32.54;96072.53;4974058;28;19922;-54
2023/08/11 10:14:27;;;;;;;;;;;41.40;31.20;;;35.41;32.17;96082.66;4955570;28;20448;-53
2023/08/11 10:16:54;;;;;;;;;;;41.40;31.20;;;35.58;31.74;96078.09;4989718;28;20379;-49
2023/08/11 10:19:20;;;;;;;;;;;41.50;31.20;;;35.37;32.71;96078.34;4957649;28;20343;-49
2023/08/11 10:21:46;;;;;;;;;;;41.60;31.20;;;35.52;31.81;96074.19;4974926;28;19910;-51
2023/08/11 10:24:13;;;;;;;;;;;41.80;31.20;;;35.79;32.85;96077.03;4973703;28;19916;-51
2023/08/11 10:26:40;;;;;;;;;;;41.90;31.10;;;35.67;31.04;96074.84;4961946;28;19913;-49
2023/08/11 10:29:07;;;;;;;;;;;42.20;31.10;;;35.79;30.79;96081.78;4963775;28;19914;-49
2023/08/11 10:31:33;;;;;;;;;;;42.30;30.90;;;35.81;30.47;96071.06;4966291;28;19914;-50
2023/08/11 10:34:07;;;;;;;;;;;42.40;30.50;;;35.82;29.80;96072.63;4967754;28;20418;-49
2023/08/11 10:36:33;;;;;;;;;;;42.50;30.50;;;35.77;30.54;96073.09;4974146;28;20052;-50
2023/08/11 10:39:08;;;;;;;;;;;42.60;30.20;;;35.90;30.78;96071.31;4974579;28;19910;-51
2023/08/11 10:41:34;;;;;;;;;;;42.60;30.10;;;36.23;29.93;96074.41;4974489;28;19909;-52
2023/08/11 10:44:00;;;;;;;;;;;42.80;30.00;;;36.35;29.54;96066.31;4964124;28;20376;-52
2023/08/11 10:46:31;;;;;;;;;;;42.90;30.00;;;36.55;28.76;96066.38;4974650;28;19909;-52
2023/08/11 10:49:30;;;;;;;;;;;43.10;29.90;;;36.61;29.76;96066.69;4973568;28;19957;-50
2023/08/11 10:52:00;;;;;;;;;;;43.30;29.80;;;36.73;28.53;96066.06;4974254;28;20377;-53
2023/08/11 10:54:26;;;;;;;;;;;43.50;29.70;;;37.02;28.38;96076.66;4959935;28;19916;-51
2023/08/11 10:56:53;;;;;;;;;;;43.70;30.00;;;37.02;27.90;96066.31;4961708;28;19910;-52
2023/08/11 10:59:30;;;;;;;;;;;43.80;29.20;;;37.04;27.80;96074.22;4974491;28;19956;-52
2023/08/11 11:01:57;;;;;;;;;;;43.70;29.00;;;36.84;26.93;96068.63;4970535;28;19922;-50
2023/08/11 11:04:31;;;;;;;;;;;43.70;28.90;;;37.00;27.33;96065.97;4963777;28;20349;-54
2023/08/11 11:07:01;;;;;;;;;;;43.90;28.80;;;37.21;26.49;96061.97;4968957;28;20313;-54
2023/08/11 11:09:28;;;;;;;;;;;44.00;28.80;;;37.48;25.37;96063.81;4966195;28;19917;-51
2023/08/11 11:11:55;;;;;;;;;;;44.20;28.60;;;37.80;25.03;96057.59;4974058;28;19916;-50
2023/08/11 11:14:21;;;;;;;;;;;44.40;28.50;;;37.95;24.61;96055.25;4972876;28;19940;-52